sensor_id;sensor_type;location;lat;lon;timestamp;temperature;humidity
38550;DHT22;24322;52.004;5.948;2022-08-03T00:01:37;19.70;99.90
38550;DHT22;24322;52.004;5.948;2022-08-03T00:04:04;19.60;99.90
38550;DHT22;24322;52.004;5.948;2022-08-03T00:06:30;19.60;99.90
38550;DHT22;24322;52.004;5.948;2022-08-03T00:08:56;19.50;99.90
38550;DHT22;24322;52.004;5.948;2022-08-03T00:11:21;19.40;99.90
38550;DHT22;24322;52.004;5.948;2022-08-03T00:13:48;19.40;99.90
38550;DHT22;24322;52.004;5.948;2022-08-03T00:16:13;19.30;99.90
38550;DHT22;24322;52.004;5.948;2022-08-03T00:18:39;19.30;99.90
38550;DHT22;24322;52.004;5.948;2022-08-03T00:21:05;19.20;99.90
38550;DHT22;24322;52.004;5.948;2022-08-03T00:23:31;19.20;99.90
38550;DHT22;24322;52.004;5.948;2022-08-03T00:25:56;19.10;99.90
38550;DHT22;24322;52.004;5.948;2022-08-03T00:28:22;19.10;99.90
38550;DHT22;24322;52.004;5.948;2022-08-03T00:30:48;19.00;99.90
38550;DHT22;24322;52.004;5.948;2022-08-03T00:33:13;19.00;99.90
38550;DHT22;24322;52.004;5.948;2022-08-03T00:35:39;18.90;99.90
38550;DHT22;24322;52.004;5.948;2022-08-03T00:38:05;18.90;99.90
38550;DHT22;24322;52.004;5.948;2022-08-03T00:40:32;18.80;99.90
38550;DHT22;24322;52.004;5.948;2022-08-03T00:42:59;18.80;99.90
38550;DHT22;24322;52.004;5.948;2022-08-03T00:45:32;18.70;99.90
38550;DHT22;24322;52.004;5.948;2022-08-03T00:47:59;18.70;99.90
38550;DHT22;24322;52.004;5.948;2022-08-03T00:50:27;18.70;99.90
38550;DHT22;24322;52.004;5.948;2022-08-03T00:52:55;18.70;99.90
38550;DHT22;24322;52.004;5.948;2022-08-03T00:55:21;18.70;99.90
38550;DHT22;24322;52.004;5.948;2022-08-03T00:57:48;18.60;99.90
38550;DHT22;24322;52.004;5.948;2022-08-03T01:00:16;18.60;99.90
38550;DHT22;24322;52.004;5.948;2022-08-03T01:02:43;18.50;99.90
38550;DHT22;24322;52.004;5.948;2022-08-03T01:05:09;18.50;99.90
38550;DHT22;24322;52.004;5.948;2022-08-03T01:13:04;18.40;99.90
38550;DHT22;24322;52.004;5.948;2022-08-03T01:15:49;18.40;99.90
38550;DHT22;24322;52.004;5.948;2022-08-03T01:21:23;18.30;99.90
38550;DHT22;24322;52.004;5.948;2022-08-03T01:29:44;18.20;99.90
38550;DHT22;24322;52.004;5.948;2022-08-03T01:32:17;18.20;99.90
38550;DHT22;24322;52.004;5.948;2022-08-03T01:34:55;18.20;99.90
38550;DHT22;24322;52.004;5.948;2022-08-03T01:37:44;18.20;99.90
38550;DHT22;24322;52.004;5.948;2022-08-03T01:40:13;18.10;99.90
38550;DHT22;24322;52.004;5.948;2022-08-03T01:42:41;18.10;99.90
38550;DHT22;24322;52.004;5.948;2022-08-03T01:45:09;18.10;99.90
38550;DHT22;24322;52.004;5.948;2022-08-03T01:47:38;18.10;99.90
38550;DHT22;24322;52.004;5.948;2022-08-03T01:50:04;18.10;99.90
38550;DHT22;24322;52.004;5.948;2022-08-03T01:52:32;18.00;99.90
38550;DHT22;24322;52.004;5.948;2022-08-03T01:54:59;18.00;99.90
38550;DHT22;24322;52.004;5.948;2022-08-03T01:57:28;18.00;99.90
38550;DHT22;24322;52.004;5.948;2022-08-03T01:59:56;18.00;99.90
38550;DHT22;24322;52.004;5.948;2022-08-03T02:02:24;18.00;99.90
38550;DHT22;24322;52.004;5.948;2022-08-03T02:04:52;18.00;99.90
38550;DHT22;24322;52.004;5.948;2022-08-03T02:07:18;18.00;99.90
38550;DHT22;24322;52.004;5.948;2022-08-03T02:09:50;18.00;99.90
38550;DHT22;24322;52.004;5.948;2022-08-03T02:12:17;17.90;99.90
38550;DHT22;24322;52.004;5.948;2022-08-03T02:14:44;18.00;99.90
38550;DHT22;24322;52.004;5.948;2022-08-03T02:17:11;17.90;99.90
38550;DHT22;24322;52.004;5.948;2022-08-03T02:19:39;17.90;99.90
38550;DHT22;24322;52.004;5.948;2022-08-03T02:22:08;17.90;99.90
38550;DHT22;24322;52.004;5.948;2022-08-03T02:24:34;17.90;99.90
38550;DHT22;24322;52.004;5.948;2022-08-03T02:27:02;17.90;99.90
38550;DHT22;24322;52.004;5.948;2022-08-03T02:29:32;17.90;99.90
38550;DHT22;24322;52.004;5.948;2022-08-03T02:32:00;17.80;99.90
38550;DHT22;24322;52.004;5.948;2022-08-03T02:34:28;17.80;99.90
38550;DHT22;24322;52.004;5.948;2022-08-03T02:36:57;17.80;99.90
38550;DHT22;24322;52.004;5.948;2022-08-03T02:39:27;17.80;99.90
38550;DHT22;24322;52.004;5.948;2022-08-03T02:41:55;17.80;99.90
38550;DHT22;24322;52.004;5.948;2022-08-03T02:44:27;17.80;99.90
38550;DHT22;24322;52.004;5.948;2022-08-03T02:46:59;17.70;99.90
38550;DHT22;24322;52.004;5.948;2022-08-03T02:49:26;17.70;99.90
38550;DHT22;24322;52.004;5.948;2022-08-03T02:51:54;17.70;99.90
38550;DHT22;24322;52.004;5.948;2022-08-03T02:54:23;17.70;99.90
38550;DHT22;24322;52.004;5.948;2022-08-03T02:56:50;17.70;99.90
38550;DHT22;24322;52.004;5.948;2022-08-03T02:59:17;17.70;99.90
38550;DHT22;24322;52.004;5.948;2022-08-03T03:01:44;17.60;99.90
38550;DHT22;24322;52.004;5.948;2022-08-03T03:04:11;17.60;99.90
38550;DHT22;24322;52.004;5.948;2022-08-03T03:06:38;17.60;99.90
38550;DHT22;24322;52.004;5.948;2022-08-03T03:09:04;17.60;99.90
38550;DHT22;24322;52.004;5.948;2022-08-03T03:11:31;17.60;99.90
38550;DHT22;24322;52.004;5.948;2022-08-03T03:13:58;17.60;99.90
38550;DHT22;24322;52.004;5.948;2022-08-03T03:16:25;17.50;99.90
38550;DHT22;24322;52.004;5.948;2022-08-03T03:18:53;17.50;99.90
38550;DHT22;24322;52.004;5.948;2022-08-03T03:21:19;17.50;99.90
38550;DHT22;24322;52.004;5.948;2022-08-03T03:23:47;17.50;99.90
38550;DHT22;24322;52.004;5.948;2022-08-03T03:26:14;17.50;99.90
38550;DHT22;24322;52.004;5.948;2022-08-03T03:28:40;17.40;99.90
38550;DHT22;24322;52.004;5.948;2022-08-03T03:31:06;17.40;99.90
38550;DHT22;24322;52.004;5.948;2022-08-03T03:33:33;17.40;99.90
38550;DHT22;24322;52.004;5.948;2022-08-03T03:35:59;17.40;99.90
38550;DHT22;24322;52.004;5.948;2022-08-03T03:38:26;17.40;99.90
38550;DHT22;24322;52.004;5.948;2022-08-03T03:40:52;17.40;99.90
38550;DHT22;24322;52.004;5.948;2022-08-03T03:43:17;17.40;99.90
38550;DHT22;24322;52.004;5.948;2022-08-03T03:45:44;17.40;99.90
38550;DHT22;24322;52.004;5.948;2022-08-03T03:48:10;17.40;99.90
38550;DHT22;24322;52.004;5.948;2022-08-03T03:50:36;17.40;99.90
38550;DHT22;24322;52.004;5.948;2022-08-03T03:53:08;17.40;99.90
38550;DHT22;24322;52.004;5.948;2022-08-03T03:55:35;17.40;99.90
38550;DHT22;24322;52.004;5.948;2022-08-03T03:58:02;17.40;99.90
38550;DHT22;24322;52.004;5.948;2022-08-03T04:00:28;17.40;99.90
38550;DHT22;24322;52.004;5.948;2022-08-03T04:02:54;17.30;99.90
38550;DHT22;24322;52.004;5.948;2022-08-03T04:05:19;17.30;99.90
38550;DHT22;24322;52.004;5.948;2022-08-03T04:08:11;17.40;99.90
38550;DHT22;24322;52.004;5.948;2022-08-03T04:16:30;17.40;99.90
38550;DHT22;24322;52.004;5.948;2022-08-03T04:18:59;17.40;99.90
38550;DHT22;24322;52.004;5.948;2022-08-03T04:21:27;17.40;99.90
38550;DHT22;24322;52.004;5.948;2022-08-03T04:23:56;17.40;99.90
38550;DHT22;24322;52.004;5.948;2022-08-03T04:26:27;17.40;99.90
38550;DHT22;24322;52.004;5.948;2022-08-03T04:28:53;17.40;99.90
38550;DHT22;24322;52.004;5.948;2022-08-03T04:31:23;17.40;99.90
38550;DHT22;24322;52.004;5.948;2022-08-03T04:33:50;17.50;99.90
38550;DHT22;24322;52.004;5.948;2022-08-03T04:36:20;17.60;99.90
38550;DHT22;24322;52.004;5.948;2022-08-03T04:38:58;17.60;99.90
38550;DHT22;24322;52.004;5.948;2022-08-03T04:41:25;17.60;99.90
38550;DHT22;24322;52.004;5.948;2022-08-03T04:43:56;17.70;99.90
38550;DHT22;24322;52.004;5.948;2022-08-03T04:46:25;17.70;99.90
38550;DHT22;24322;52.004;5.948;2022-08-03T04:48:52;17.80;99.90
38550;DHT22;24322;52.004;5.948;2022-08-03T04:51:18;17.90;99.90
38550;DHT22;24322;52.004;5.948;2022-08-03T04:53:44;17.90;99.90
38550;DHT22;24322;52.004;5.948;2022-08-03T04:56:09;17.90;99.90
38550;DHT22;24322;52.004;5.948;2022-08-03T04:58:35;18.00;99.90
38550;DHT22;24322;52.004;5.948;2022-08-03T05:01:00;18.00;99.90
38550;DHT22;24322;52.004;5.948;2022-08-03T05:03:26;18.00;99.90
38550;DHT22;24322;52.004;5.948;2022-08-03T05:05:52;18.10;99.90
38550;DHT22;24322;52.004;5.948;2022-08-03T05:08:18;18.10;99.90
38550;DHT22;24322;52.004;5.948;2022-08-03T05:10:44;18.20;99.90
38550;DHT22;24322;52.004;5.948;2022-08-03T05:13:10;18.30;99.90
38550;DHT22;24322;52.004;5.948;2022-08-03T05:15:38;18.30;99.90
38550;DHT22;24322;52.004;5.948;2022-08-03T05:18:03;18.40;99.90
38550;DHT22;24322;52.004;5.948;2022-08-03T05:20:29;18.40;99.90
38550;DHT22;24322;52.004;5.948;2022-08-03T05:22:55;18.50;99.90
38550;DHT22;24322;52.004;5.948;2022-08-03T05:25:22;18.60;99.90
38550;DHT22;24322;52.004;5.948;2022-08-03T05:27:47;18.70;99.90
38550;DHT22;24322;52.004;5.948;2022-08-03T05:30:13;18.70;99.90
38550;DHT22;24322;52.004;5.948;2022-08-03T05:32:39;18.80;99.90
38550;DHT22;24322;52.004;5.948;2022-08-03T05:35:05;18.90;99.90
38550;DHT22;24322;52.004;5.948;2022-08-03T05:37:31;19.00;99.90
38550;DHT22;24322;52.004;5.948;2022-08-03T05:39:56;19.10;99.90
38550;DHT22;24322;52.004;5.948;2022-08-03T05:42:22;19.20;99.90
38550;DHT22;24322;52.004;5.948;2022-08-03T05:44:47;19.30;99.90
38550;DHT22;24322;52.004;5.948;2022-08-03T05:47:13;19.40;99.90
38550;DHT22;24322;52.004;5.948;2022-08-03T05:49:39;19.50;99.90
38550;DHT22;24322;52.004;5.948;2022-08-03T05:52:04;19.70;99.90
38550;DHT22;24322;52.004;5.948;2022-08-03T05:54:30;19.80;99.90
38550;DHT22;24322;52.004;5.948;2022-08-03T05:56:55;19.90;99.90
38550;DHT22;24322;52.004;5.948;2022-08-03T05:59:21;20.10;99.90
38550;DHT22;24322;52.004;5.948;2022-08-03T06:01:47;20.20;99.90
38550;DHT22;24322;52.004;5.948;2022-08-03T06:04:13;20.30;99.90
38550;DHT22;24322;52.004;5.948;2022-08-03T06:06:38;20.40;99.90
38550;DHT22;24322;52.004;5.948;2022-08-03T06:09:04;20.50;99.90
38550;DHT22;24322;52.004;5.948;2022-08-03T06:11:29;20.60;99.90
38550;DHT22;24322;52.004;5.948;2022-08-03T06:13:55;20.70;99.90
38550;DHT22;24322;52.004;5.948;2022-08-03T06:16:21;20.80;99.90
38550;DHT22;24322;52.004;5.948;2022-08-03T06:18:46;20.80;99.90
38550;DHT22;24322;52.004;5.948;2022-08-03T06:21:12;20.90;99.90
38550;DHT22;24322;52.004;5.948;2022-08-03T06:23:37;21.00;99.90
38550;DHT22;24322;52.004;5.948;2022-08-03T06:26:03;21.10;99.90
38550;DHT22;24322;52.004;5.948;2022-08-03T06:28:29;21.10;99.90
38550;DHT22;24322;52.004;5.948;2022-08-03T06:30:55;21.20;99.90
38550;DHT22;24322;52.004;5.948;2022-08-03T06:33:20;21.20;99.90
38550;DHT22;24322;52.004;5.948;2022-08-03T06:35:46;21.30;99.90
38550;DHT22;24322;52.004;5.948;2022-08-03T06:38:12;21.30;99.90
38550;DHT22;24322;52.004;5.948;2022-08-03T06:40:37;21.50;99.90
38550;DHT22;24322;52.004;5.948;2022-08-03T06:43:06;21.50;99.90
38550;DHT22;24322;52.004;5.948;2022-08-03T06:45:33;21.60;99.90
38550;DHT22;24322;52.004;5.948;2022-08-03T06:48:01;21.60;99.90
38550;DHT22;24322;52.004;5.948;2022-08-03T06:50:28;21.80;99.90
38550;DHT22;24322;52.004;5.948;2022-08-03T06:52:54;21.80;99.90
38550;DHT22;24322;52.004;5.948;2022-08-03T06:55:19;21.90;99.90
38550;DHT22;24322;52.004;5.948;2022-08-03T06:57:45;21.90;99.90
38550;DHT22;24322;52.004;5.948;2022-08-03T07:00:11;21.90;99.90
38550;DHT22;24322;52.004;5.948;2022-08-03T07:02:37;22.00;99.90
38550;DHT22;24322;52.004;5.948;2022-08-03T07:05:04;22.20;99.90
38550;DHT22;24322;52.004;5.948;2022-08-03T07:07:30;22.30;99.90
38550;DHT22;24322;52.004;5.948;2022-08-03T07:09:55;22.30;99.90
38550;DHT22;24322;52.004;5.948;2022-08-03T07:12:21;22.40;99.90
38550;DHT22;24322;52.004;5.948;2022-08-03T07:14:46;22.50;99.90
38550;DHT22;24322;52.004;5.948;2022-08-03T07:17:12;22.60;99.90
38550;DHT22;24322;52.004;5.948;2022-08-03T07:19:38;22.70;99.90
38550;DHT22;24322;52.004;5.948;2022-08-03T07:22:03;22.80;99.90
38550;DHT22;24322;52.004;5.948;2022-08-03T07:24:29;22.90;99.90
38550;DHT22;24322;52.004;5.948;2022-08-03T07:26:54;23.00;99.90
38550;DHT22;24322;52.004;5.948;2022-08-03T07:29:20;23.10;99.90
38550;DHT22;24322;52.004;5.948;2022-08-03T07:31:46;23.20;99.90
38550;DHT22;24322;52.004;5.948;2022-08-03T07:34:11;23.30;99.90
38550;DHT22;24322;52.004;5.948;2022-08-03T07:36:37;23.40;99.90
38550;DHT22;24322;52.004;5.948;2022-08-03T07:39:03;23.60;99.90
38550;DHT22;24322;52.004;5.948;2022-08-03T07:41:28;23.60;99.90
38550;DHT22;24322;52.004;5.948;2022-08-03T07:43:54;23.70;99.90
38550;DHT22;24322;52.004;5.948;2022-08-03T07:46:20;23.70;99.90
38550;DHT22;24322;52.004;5.948;2022-08-03T07:48:45;23.80;99.90
38550;DHT22;24322;52.004;5.948;2022-08-03T07:51:11;23.90;99.90
38550;DHT22;24322;52.004;5.948;2022-08-03T07:53:36;24.10;99.80
38550;DHT22;24322;52.004;5.948;2022-08-03T07:56:02;24.30;99.00
38550;DHT22;24322;52.004;5.948;2022-08-03T07:58:28;24.50;98.70
38550;DHT22;24322;52.004;5.948;2022-08-03T08:00:53;24.80;98.30
38550;DHT22;24322;52.004;5.948;2022-08-03T08:03:19;25.00;97.70
38550;DHT22;24322;52.004;5.948;2022-08-03T08:05:46;25.50;97.20
38550;DHT22;24322;52.004;5.948;2022-08-03T08:08:12;25.90;96.30
38550;DHT22;24322;52.004;5.948;2022-08-03T08:10:38;26.30;95.70
38550;DHT22;24322;52.004;5.948;2022-08-03T08:13:03;26.70;94.90
38550;DHT22;24322;52.004;5.948;2022-08-03T08:15:29;27.00;93.50
38550;DHT22;24322;52.004;5.948;2022-08-03T08:17:57;27.40;93.50
38550;DHT22;24322;52.004;5.948;2022-08-03T08:20:26;27.90;92.50
38550;DHT22;24322;52.004;5.948;2022-08-03T08:22:54;28.30;91.40
38550;DHT22;24322;52.004;5.948;2022-08-03T08:25:21;28.50;90.20
38550;DHT22;24322;52.004;5.948;2022-08-03T08:27:48;28.90;89.30
38550;DHT22;24322;52.004;5.948;2022-08-03T08:30:21;29.40;87.50
38550;DHT22;24322;52.004;5.948;2022-08-03T08:32:47;29.70;83.40
38550;DHT22;24322;52.004;5.948;2022-08-03T08:35:14;29.90;79.60
38550;DHT22;24322;52.004;5.948;2022-08-03T08:37:40;30.20;77.80
38550;DHT22;24322;52.004;5.948;2022-08-03T08:40:06;30.60;78.20
38550;DHT22;24322;52.004;5.948;2022-08-03T08:42:33;30.80;75.80
38550;DHT22;24322;52.004;5.948;2022-08-03T08:44:59;31.60;74.60
38550;DHT22;24322;52.004;5.948;2022-08-03T08:47:29;31.90;71.00
38550;DHT22;24322;52.004;5.948;2022-08-03T08:49:57;32.60;69.90
38550;DHT22;24322;52.004;5.948;2022-08-03T08:52:27;33.20;65.70
38550;DHT22;24322;52.004;5.948;2022-08-03T08:54:59;33.70;64.60
38550;DHT22;24322;52.004;5.948;2022-08-03T08:57:27;34.00;61.70
38550;DHT22;24322;52.004;5.948;2022-08-03T08:59:54;34.40;61.50
38550;DHT22;24322;52.004;5.948;2022-08-03T09:02:22;34.80;59.60
38550;DHT22;24322;52.004;5.948;2022-08-03T09:04:48;35.00;57.20
38550;DHT22;24322;52.004;5.948;2022-08-03T09:07:14;35.00;56.90
38550;DHT22;24322;52.004;5.948;2022-08-03T09:09:40;35.00;55.50
38550;DHT22;24322;52.004;5.948;2022-08-03T09:12:07;35.40;54.70
38550;DHT22;24322;52.004;5.948;2022-08-03T09:14:33;35.80;54.00
38550;DHT22;24322;52.004;5.948;2022-08-03T09:17:00;35.70;52.70
38550;DHT22;24322;52.004;5.948;2022-08-03T09:19:33;36.00;53.10
38550;DHT22;24322;52.004;5.948;2022-08-03T09:22:13;36.10;52.50
38550;DHT22;24322;52.004;5.948;2022-08-03T09:24:58;36.40;51.80
38550;DHT22;24322;52.004;5.948;2022-08-03T09:27:24;36.20;51.00
38550;DHT22;24322;52.004;5.948;2022-08-03T09:29:51;36.30;50.90
38550;DHT22;24322;52.004;5.948;2022-08-03T09:32:21;36.20;51.00
38550;DHT22;24322;52.004;5.948;2022-08-03T09:34:48;36.40;51.30
38550;DHT22;24322;52.004;5.948;2022-08-03T09:37:16;36.70;50.80
38550;DHT22;24322;52.004;5.948;2022-08-03T09:39:42;36.90;50.80
38550;DHT22;24322;52.004;5.948;2022-08-03T09:42:17;36.80;50.60
38550;DHT22;24322;52.004;5.948;2022-08-03T09:44:45;36.50;49.80
38550;DHT22;24322;52.004;5.948;2022-08-03T09:47:13;36.50;49.60
38550;DHT22;24322;52.004;5.948;2022-08-03T09:49:40;36.70;49.60
38550;DHT22;24322;52.004;5.948;2022-08-03T09:52:33;36.80;48.80
38550;DHT22;24322;52.004;5.948;2022-08-03T09:55:00;36.50;48.90
38550;DHT22;24322;52.004;5.948;2022-08-03T09:57:27;36.10;49.10
38550;DHT22;24322;52.004;5.948;2022-08-03T10:00:07;35.70;50.40
38550;DHT22;24322;52.004;5.948;2022-08-03T10:02:35;35.70;50.70
38550;DHT22;24322;52.004;5.948;2022-08-03T10:05:02;35.20;49.90
38550;DHT22;24322;52.004;5.948;2022-08-03T10:07:28;34.80;51.00
38550;DHT22;24322;52.004;5.948;2022-08-03T10:09:54;34.50;51.30
38550;DHT22;24322;52.004;5.948;2022-08-03T10:12:21;34.30;52.00
38550;DHT22;24322;52.004;5.948;2022-08-03T10:14:47;34.30;52.40
38550;DHT22;24322;52.004;5.948;2022-08-03T10:17:12;34.10;52.90
38550;DHT22;24322;52.004;5.948;2022-08-03T10:19:39;34.40;53.20
38550;DHT22;24322;52.004;5.948;2022-08-03T10:22:26;34.70;53.00
38550;DHT22;24322;52.004;5.948;2022-08-03T10:24:55;35.00;52.50
38550;DHT22;24322;52.004;5.948;2022-08-03T10:27:23;35.40;51.40
38550;DHT22;24322;52.004;5.948;2022-08-03T10:29:52;35.30;50.30
38550;DHT22;24322;52.004;5.948;2022-08-03T10:32:42;35.50;49.50
38550;DHT22;24322;52.004;5.948;2022-08-03T10:35:13;35.60;48.90
38550;DHT22;24322;52.004;5.948;2022-08-03T10:37:43;36.00;49.70
38550;DHT22;24322;52.004;5.948;2022-08-03T10:40:13;36.10;48.80
38550;DHT22;24322;52.004;5.948;2022-08-03T10:42:51;36.50;48.70
38550;DHT22;24322;52.004;5.948;2022-08-03T10:45:22;36.70;47.60
38550;DHT22;24322;52.004;5.948;2022-08-03T10:47:49;36.70;47.40
38550;DHT22;24322;52.004;5.948;2022-08-03T10:50:16;36.90;47.20
38550;DHT22;24322;52.004;5.948;2022-08-03T10:53:02;37.20;46.50
38550;DHT22;24322;52.004;5.948;2022-08-03T10:55:41;37.40;46.60
38550;DHT22;24322;52.004;5.948;2022-08-03T11:01:01;37.40;46.60
38550;DHT22;24322;52.004;5.948;2022-08-03T11:03:27;37.70;45.90
38550;DHT22;24322;52.004;5.948;2022-08-03T11:06:13;38.10;45.30
38550;DHT22;24322;52.004;5.948;2022-08-03T11:08:41;38.30;45.70
38550;DHT22;24322;52.004;5.948;2022-08-03T11:11:27;38.30;45.10
38550;DHT22;24322;52.004;5.948;2022-08-03T11:14:08;37.70;44.80
38550;DHT22;24322;52.004;5.948;2022-08-03T11:16:35;36.90;45.00
38550;DHT22;24322;52.004;5.948;2022-08-03T11:19:04;36.10;45.20
38550;DHT22;24322;52.004;5.948;2022-08-03T11:37:31;33.40;51.30
38550;DHT22;24322;52.004;5.948;2022-08-03T11:39:56;33.30;51.40
38550;DHT22;24322;52.004;5.948;2022-08-03T11:44:59;33.00;49.70
38550;DHT22;24322;52.004;5.948;2022-08-03T11:47:26;32.70;52.00
38550;DHT22;24322;52.004;5.948;2022-08-03T11:49:57;32.70;51.60
38550;DHT22;24322;52.004;5.948;2022-08-03T11:52:24;32.50;52.70
38550;DHT22;24322;52.004;5.948;2022-08-03T11:54:51;32.40;53.00
38550;DHT22;24322;52.004;5.948;2022-08-03T11:57:31;32.30;53.00
38550;DHT22;24322;52.004;5.948;2022-08-03T11:59:57;32.30;51.00
38550;DHT22;24322;52.004;5.948;2022-08-03T12:02:23;32.30;51.40
38550;DHT22;24322;52.004;5.948;2022-08-03T12:04:57;32.50;50.00
38550;DHT22;24322;52.004;5.948;2022-08-03T12:07:25;32.60;51.20
38550;DHT22;24322;52.004;5.948;2022-08-03T12:10:11;33.00;50.60
38550;DHT22;24322;52.004;5.948;2022-08-03T12:12:37;33.20;49.60
38550;DHT22;24322;52.004;5.948;2022-08-03T12:15:04;33.10;49.00
38550;DHT22;24322;52.004;5.948;2022-08-03T12:17:38;33.00;49.10
38550;DHT22;24322;52.004;5.948;2022-08-03T12:20:07;33.20;49.70
38550;DHT22;24322;52.004;5.948;2022-08-03T12:22:33;33.40;49.50
38550;DHT22;24322;52.004;5.948;2022-08-03T12:24:59;33.60;50.10
38550;DHT22;24322;52.004;5.948;2022-08-03T12:27:25;33.80;48.00
38550;DHT22;24322;52.004;5.948;2022-08-03T12:29:55;33.50;48.10
38550;DHT22;24322;52.004;5.948;2022-08-03T12:32:21;33.60;49.50
38550;DHT22;24322;52.004;5.948;2022-08-03T12:34:47;33.60;48.30
38550;DHT22;24322;52.004;5.948;2022-08-03T12:37:13;33.60;48.60
38550;DHT22;24322;52.004;5.948;2022-08-03T12:39:52;33.60;48.80
38550;DHT22;24322;52.004;5.948;2022-08-03T12:42:18;33.80;49.70
38550;DHT22;24322;52.004;5.948;2022-08-03T12:44:44;34.00;49.30
38550;DHT22;24322;52.004;5.948;2022-08-03T12:47:15;34.10;48.80
38550;DHT22;24322;52.004;5.948;2022-08-03T12:49:45;33.90;47.30
38550;DHT22;24322;52.004;5.948;2022-08-03T12:52:11;33.90;47.60
38550;DHT22;24322;52.004;5.948;2022-08-03T12:54:37;33.80;48.00
38550;DHT22;24322;52.004;5.948;2022-08-03T12:57:08;33.90;48.00
38550;DHT22;24322;52.004;5.948;2022-08-03T12:59:42;34.00;48.00
38550;DHT22;24322;52.004;5.948;2022-08-03T13:02:24;34.00;48.00
38550;DHT22;24322;52.004;5.948;2022-08-03T13:04:52;33.90;47.70
38550;DHT22;24322;52.004;5.948;2022-08-03T13:07:18;34.00;47.70
38550;DHT22;24322;52.004;5.948;2022-08-03T13:09:49;34.20;47.30
38550;DHT22;24322;52.004;5.948;2022-08-03T13:12:17;34.20;46.50
38550;DHT22;24322;52.004;5.948;2022-08-03T13:14:46;34.00;46.10
38550;DHT22;24322;52.004;5.948;2022-08-03T13:17:12;34.00;47.80
38550;DHT22;24322;52.004;5.948;2022-08-03T13:19:39;34.00;47.40
38550;DHT22;24322;52.004;5.948;2022-08-03T13:22:16;34.10;47.50
38550;DHT22;24322;52.004;5.948;2022-08-03T13:24:44;34.10;46.70
38550;DHT22;24322;52.004;5.948;2022-08-03T13:27:10;34.20;47.30
38550;DHT22;24322;52.004;5.948;2022-08-03T13:29:37;34.30;47.20
38550;DHT22;24322;52.004;5.948;2022-08-03T13:32:03;34.40;47.50
38550;DHT22;24322;52.004;5.948;2022-08-03T13:34:29;34.60;47.50
38550;DHT22;24322;52.004;5.948;2022-08-03T13:36:55;34.60;46.90
38550;DHT22;24322;52.004;5.948;2022-08-03T13:39:21;34.70;47.50
38550;DHT22;24322;52.004;5.948;2022-08-03T13:41:47;34.60;47.40
38550;DHT22;24322;52.004;5.948;2022-08-03T13:44:13;34.60;47.80
38550;DHT22;24322;52.004;5.948;2022-08-03T13:46:39;34.10;47.70
38550;DHT22;24322;52.004;5.948;2022-08-03T13:49:05;34.00;48.80
38550;DHT22;24322;52.004;5.948;2022-08-03T13:51:31;33.80;48.60
38550;DHT22;24322;52.004;5.948;2022-08-03T13:53:57;33.60;49.40
38550;DHT22;24322;52.004;5.948;2022-08-03T13:56:25;33.30;49.70
38550;DHT22;24322;52.004;5.948;2022-08-03T13:58:50;33.20;50.70
38550;DHT22;24322;52.004;5.948;2022-08-03T14:01:16;33.10;50.70
38550;DHT22;24322;52.004;5.948;2022-08-03T14:03:41;32.90;50.60
38550;DHT22;24322;52.004;5.948;2022-08-03T14:06:07;32.80;51.10
38550;DHT22;24322;52.004;5.948;2022-08-03T14:08:33;32.70;51.20
38550;DHT22;24322;52.004;5.948;2022-08-03T14:10:58;32.60;51.50
38550;DHT22;24322;52.004;5.948;2022-08-03T14:13:24;32.40;52.50
38550;DHT22;24322;52.004;5.948;2022-08-03T14:15:50;32.20;52.70
38550;DHT22;24322;52.004;5.948;2022-08-03T14:18:20;32.00;53.10
38550;DHT22;24322;52.004;5.948;2022-08-03T14:20:45;32.00;53.20
38550;DHT22;24322;52.004;5.948;2022-08-03T14:23:11;32.00;53.20
38550;DHT22;24322;52.004;5.948;2022-08-03T14:25:37;31.90;53.30
38550;DHT22;24322;52.004;5.948;2022-08-03T14:28:06;32.00;53.80
38550;DHT22;24322;52.004;5.948;2022-08-03T14:30:31;32.10;54.20
38550;DHT22;24322;52.004;5.948;2022-08-03T14:32:57;32.00;54.10
38550;DHT22;24322;52.004;5.948;2022-08-03T14:35:22;31.90;54.00
38550;DHT22;24322;52.004;5.948;2022-08-03T14:37:48;32.00;54.70
38550;DHT22;24322;52.004;5.948;2022-08-03T14:40:14;32.00;54.30
38550;DHT22;24322;52.004;5.948;2022-08-03T14:42:39;32.00;54.10
38550;DHT22;24322;52.004;5.948;2022-08-03T14:45:05;31.90;54.30
38550;DHT22;24322;52.004;5.948;2022-08-03T14:47:31;31.80;54.30
38550;DHT22;24322;52.004;5.948;2022-08-03T14:49:57;31.70;54.70
38550;DHT22;24322;52.004;5.948;2022-08-03T14:52:23;31.60;54.80
38550;DHT22;24322;52.004;5.948;2022-08-03T14:54:48;31.70;55.40
38550;DHT22;24322;52.004;5.948;2022-08-03T14:57:14;31.70;55.00
38550;DHT22;24322;52.004;5.948;2022-08-03T14:59:40;31.60;54.90
38550;DHT22;24322;52.004;5.948;2022-08-03T15:02:05;31.50;55.40
38550;DHT22;24322;52.004;5.948;2022-08-03T15:04:31;31.60;55.40
38550;DHT22;24322;52.004;5.948;2022-08-03T15:06:56;31.50;55.80
38550;DHT22;24322;52.004;5.948;2022-08-03T15:09:22;31.50;55.90
38550;DHT22;24322;52.004;5.948;2022-08-03T15:11:47;31.50;56.10
38550;DHT22;24322;52.004;5.948;2022-08-03T15:14:13;31.50;56.10
38550;DHT22;24322;52.004;5.948;2022-08-03T15:16:39;31.50;55.80
38550;DHT22;24322;52.004;5.948;2022-08-03T15:19:05;31.40;56.10
38550;DHT22;24322;52.004;5.948;2022-08-03T15:21:31;31.30;55.90
38550;DHT22;24322;52.004;5.948;2022-08-03T15:23:56;31.40;56.60
38550;DHT22;24322;52.004;5.948;2022-08-03T15:26:22;31.30;55.60
38550;DHT22;24322;52.004;5.948;2022-08-03T15:28:47;31.20;56.10
38550;DHT22;24322;52.004;5.948;2022-08-03T15:31:13;31.20;56.00
38550;DHT22;24322;52.004;5.948;2022-08-03T15:33:38;31.20;56.40
38550;DHT22;24322;52.004;5.948;2022-08-03T15:36:04;31.20;56.60
38550;DHT22;24322;52.004;5.948;2022-08-03T15:38:30;31.20;56.40
38550;DHT22;24322;52.004;5.948;2022-08-03T15:40:56;31.30;56.60
38550;DHT22;24322;52.004;5.948;2022-08-03T15:43:23;31.30;56.10
38550;DHT22;24322;52.004;5.948;2022-08-03T15:45:49;31.20;56.10
38550;DHT22;24322;52.004;5.948;2022-08-03T15:48:15;31.30;56.00
38550;DHT22;24322;52.004;5.948;2022-08-03T15:50:41;31.20;55.70
38550;DHT22;24322;52.004;5.948;2022-08-03T15:53:08;31.20;56.00
38550;DHT22;24322;52.004;5.948;2022-08-03T15:55:33;31.10;55.70
38550;DHT22;24322;52.004;5.948;2022-08-03T15:57:59;31.10;56.20
38550;DHT22;24322;52.004;5.948;2022-08-03T16:00:24;31.10;55.90
38550;DHT22;24322;52.004;5.948;2022-08-03T16:02:50;31.10;56.10
38550;DHT22;24322;52.004;5.948;2022-08-03T16:05:15;31.00;56.20
38550;DHT22;24322;52.004;5.948;2022-08-03T16:07:41;31.00;55.80
38550;DHT22;24322;52.004;5.948;2022-08-03T16:10:08;31.00;55.80
38550;DHT22;24322;52.004;5.948;2022-08-03T16:12:35;31.00;56.00
38550;DHT22;24322;52.004;5.948;2022-08-03T16:15:01;30.90;56.10